sensor_id;sensor_type;location;lat;lon;timestamp;temperature;humidity
20546;DHT22;10431;50.228;9.112;2023-10-09T00:00:19;19.50;99.90
20546;DHT22;10431;50.228;9.112;2023-10-09T00:03:02;19.50;99.90
20546;DHT22;10431;50.228;9.112;2023-10-09T00:05:30;19.50;99.90
20546;DHT22;10431;50.228;9.112;2023-10-09T00:08:22;19.50;99.90
20546;DHT22;10431;50.228;9.112;2023-10-09T00:10:52;19.50;99.90
20546;DHT22;10431;50.228;9.112;2023-10-09T00:13:20;19.50;99.90
20546;DHT22;10431;50.228;9.112;2023-10-09T00:15:50;19.50;99.90
20546;DHT22;10431;50.228;9.112;2023-10-09T00:18:19;19.40;99.90
20546;DHT22;10431;50.228;9.112;2023-10-09T00:20:55;19.40;99.90
20546;DHT22;10431;50.228;9.112;2023-10-09T00:23:27;19.40;99.90
20546;DHT22;10431;50.228;9.112;2023-10-09T00:25:53;19.40;99.90
20546;DHT22;10431;50.228;9.112;2023-10-09T00:28:47;19.40;99.90
20546;DHT22;10431;50.228;9.112;2023-10-09T00:31:14;19.40;99.90
20546;DHT22;10431;50.228;9.112;2023-10-09T00:33:52;19.40;99.90
20546;DHT22;10431;50.228;9.112;2023-10-09T00:36:18;19.40;99.90
20546;DHT22;10431;50.228;9.112;2023-10-09T00:38:54;19.40;99.90
20546;DHT22;10431;50.228;9.112;2023-10-09T00:41:20;19.40;99.90
20546;DHT22;10431;50.228;9.112;2023-10-09T00:43:48;19.40;99.90
20546;DHT22;10431;50.228;9.112;2023-10-09T00:46:19;19.40;99.90
20546;DHT22;10431;50.228;9.112;2023-10-09T00:48:48;19.40;99.90
20546;DHT22;10431;50.228;9.112;2023-10-09T00:51:16;19.40;99.90
20546;DHT22;10431;50.228;9.112;2023-10-09T00:53:54;19.40;99.90
20546;DHT22;10431;50.228;9.112;2023-10-09T00:56:23;19.40;99.90
20546;DHT22;10431;50.228;9.112;2023-10-09T00:58:54;19.40;99.90
20546;DHT22;10431;50.228;9.112;2023-10-09T01:01:36;19.40;99.90
20546;DHT22;10431;50.228;9.112;2023-10-09T01:04:05;19.30;99.90
20546;DHT22;10431;50.228;9.112;2023-10-09T01:06:42;19.40;99.90
20546;DHT22;10431;50.228;9.112;2023-10-09T01:09:14;19.40;99.90
20546;DHT22;10431;50.228;9.112;2023-10-09T01:11:41;19.30;99.90
20546;DHT22;10431;50.228;9.112;2023-10-09T01:14:25;19.30;99.90
20546;DHT22;10431;50.228;9.112;2023-10-09T01:16:51;19.40;99.90
20546;DHT22;10431;50.228;9.112;2023-10-09T01:19:20;19.30;99.90
20546;DHT22;10431;50.228;9.112;2023-10-09T01:21:51;19.30;99.90
20546;DHT22;10431;50.228;9.112;2023-10-09T01:24:17;19.30;99.90
20546;DHT22;10431;50.228;9.112;2023-10-09T01:26:46;19.30;99.90
20546;DHT22;10431;50.228;9.112;2023-10-09T01:29:20;19.30;99.90
20546;DHT22;10431;50.228;9.112;2023-10-09T01:34:31;19.30;99.90
20546;DHT22;10431;50.228;9.112;2023-10-09T01:37:12;19.30;99.90
20546;DHT22;10431;50.228;9.112;2023-10-09T01:39:49;19.30;99.90
20546;DHT22;10431;50.228;9.112;2023-10-09T01:42:17;19.30;99.90
20546;DHT22;10431;50.228;9.112;2023-10-09T01:44:56;19.30;99.90
20546;DHT22;10431;50.228;9.112;2023-10-09T01:47:24;19.30;99.90
20546;DHT22;10431;50.228;9.112;2023-10-09T01:49:57;19.30;99.90
20546;DHT22;10431;50.228;9.112;2023-10-09T01:52:24;19.30;99.90
20546;DHT22;10431;50.228;9.112;2023-10-09T01:54:51;19.20;99.90
20546;DHT22;10431;50.228;9.112;2023-10-09T01:57:19;19.20;99.90
20546;DHT22;10431;50.228;9.112;2023-10-09T01:59:49;19.20;99.90
20546;DHT22;10431;50.228;9.112;2023-10-09T02:02:17;19.20;99.90
20546;DHT22;10431;50.228;9.112;2023-10-09T02:04:53;19.20;99.90
20546;DHT22;10431;50.228;9.112;2023-10-09T02:07:20;19.20;99.90
20546;DHT22;10431;50.228;9.112;2023-10-09T02:09:56;19.20;99.90
20546;DHT22;10431;50.228;9.112;2023-10-09T02:12:22;19.20;99.90
20546;DHT22;10431;50.228;9.112;2023-10-09T02:14:51;19.20;99.90
20546;DHT22;10431;50.228;9.112;2023-10-09T02:17:20;19.20;99.90
20546;DHT22;10431;50.228;9.112;2023-10-09T02:19:46;19.20;99.90
20546;DHT22;10431;50.228;9.112;2023-10-09T02:22:16;19.20;99.90
20546;DHT22;10431;50.228;9.112;2023-10-09T02:24:44;19.20;99.90
20546;DHT22;10431;50.228;9.112;2023-10-09T02:27:17;19.20;99.90
20546;DHT22;10431;50.228;9.112;2023-10-09T02:30:07;19.20;99.90
20546;DHT22;10431;50.228;9.112;2023-10-09T02:32:42;19.20;99.90
20546;DHT22;10431;50.228;9.112;2023-10-09T02:35:11;19.20;99.90
20546;DHT22;10431;50.228;9.112;2023-10-09T02:37:47;19.20;99.90
20546;DHT22;10431;50.228;9.112;2023-10-09T02:40:14;19.20;99.90
20546;DHT22;10431;50.228;9.112;2023-10-09T02:42:53;19.20;99.90
20546;DHT22;10431;50.228;9.112;2023-10-09T02:45:20;19.20;99.90
20546;DHT22;10431;50.228;9.112;2023-10-09T02:47:55;19.20;99.90
20546;DHT22;10431;50.228;9.112;2023-10-09T02:50:22;19.20;99.90
20546;DHT22;10431;50.228;9.112;2023-10-09T02:52:49;19.20;99.90
20546;DHT22;10431;50.228;9.112;2023-10-09T02:55:25;19.20;99.90
20546;DHT22;10431;50.228;9.112;2023-10-09T02:57:54;19.10;99.90
20546;DHT22;10431;50.228;9.112;2023-10-09T03:00:37;19.20;99.90
20546;DHT22;10431;50.228;9.112;2023-10-09T03:03:04;19.10;99.90
20546;DHT22;10431;50.228;9.112;2023-10-09T03:05:33;19.10;99.90
20546;DHT22;10431;50.228;9.112;2023-10-09T03:07:59;19.20;99.90
20546;DHT22;10431;50.228;9.112;2023-10-09T03:10:26;19.10;99.90
20546;DHT22;10431;50.228;9.112;2023-10-09T03:12:52;19.10;99.90
20546;DHT22;10431;50.228;9.112;2023-10-09T03:15:20;19.10;99.90
20546;DHT22;10431;50.228;9.112;2023-10-09T03:17:46;19.10;99.90
20546;DHT22;10431;50.228;9.112;2023-10-09T03:20:16;19.10;99.90
20546;DHT22;10431;50.228;9.112;2023-10-09T03:22:44;19.10;99.90
20546;DHT22;10431;50.228;9.112;2023-10-09T03:25:11;19.10;99.90
20546;DHT22;10431;50.228;9.112;2023-10-09T03:27:43;19.10;99.90
20546;DHT22;10431;50.228;9.112;2023-10-09T03:30:14;19.00;99.90
20546;DHT22;10431;50.228;9.112;2023-10-09T03:32:45;19.10;99.90
20546;DHT22;10431;50.228;9.112;2023-10-09T03:35:21;19.10;99.90
20546;DHT22;10431;50.228;9.112;2023-10-09T03:37:54;19.10;99.90
20546;DHT22;10431;50.228;9.112;2023-10-09T03:40:26;19.10;99.90
20546;DHT22;10431;50.228;9.112;2023-10-09T03:42:53;19.00;99.90
20546;DHT22;10431;50.228;9.112;2023-10-09T03:45:22;19.10;99.90
20546;DHT22;10431;50.228;9.112;2023-10-09T03:47:56;19.00;99.90
20546;DHT22;10431;50.228;9.112;2023-10-09T03:50:42;19.00;99.90
20546;DHT22;10431;50.228;9.112;2023-10-09T03:53:09;19.00;99.90
20546;DHT22;10431;50.228;9.112;2023-10-09T03:55:39;19.00;99.90
20546;DHT22;10431;50.228;9.112;2023-10-09T03:58:07;19.00;99.90
20546;DHT22;10431;50.228;9.112;2023-10-09T04:00:33;19.00;99.90
20546;DHT22;10431;50.228;9.112;2023-10-09T04:03:11;19.00;99.90
20546;DHT22;10431;50.228;9.112;2023-10-09T04:05:37;19.00;99.90
20546;DHT22;10431;50.228;9.112;2023-10-09T04:08:08;19.00;99.90
20546;DHT22;10431;50.228;9.112;2023-10-09T04:10:42;19.00;99.90
20546;DHT22;10431;50.228;9.112;2023-10-09T04:13:18;19.00;99.90
20546;DHT22;10431;50.228;9.112;2023-10-09T04:15:50;19.00;99.90
20546;DHT22;10431;50.228;9.112;2023-10-09T04:18:19;19.00;99.90
20546;DHT22;10431;50.228;9.112;2023-10-09T04:20:46;19.00;99.90
20546;DHT22;10431;50.228;9.112;2023-10-09T04:23:31;19.00;99.90
20546;DHT22;10431;50.228;9.112;2023-10-09T04:26:23;19.00;99.90
20546;DHT22;10431;50.228;9.112;2023-10-09T04:28:51;19.00;99.90
20546;DHT22;10431;50.228;9.112;2023-10-09T04:31:19;19.00;99.90
20546;DHT22;10431;50.228;9.112;2023-10-09T04:33:47;18.90;99.90
20546;DHT22;10431;50.228;9.112;2023-10-09T04:36:40;19.00;99.90
20546;DHT22;10431;50.228;9.112;2023-10-09T04:39:12;18.90;99.90
20546;DHT22;10431;50.228;9.112;2023-10-09T04:41:38;19.00;99.90
20546;DHT22;10431;50.228;9.112;2023-10-09T04:44:07;18.90;99.90
20546;DHT22;10431;50.228;9.112;2023-10-09T04:46:50;18.90;99.90
20546;DHT22;10431;50.228;9.112;2023-10-09T04:49:36;18.90;99.90
20546;DHT22;10431;50.228;9.112;2023-10-09T04:52:17;18.90;99.90
20546;DHT22;10431;50.228;9.112;2023-10-09T04:54:58;18.90;99.90
20546;DHT22;10431;50.228;9.112;2023-10-09T04:57:31;18.90;99.90
20546;DHT22;10431;50.228;9.112;2023-10-09T05:00:16;18.90;99.90
20546;DHT22;10431;50.228;9.112;2023-10-09T05:02:56;18.90;99.90
20546;DHT22;10431;50.228;9.112;2023-10-09T05:05:27;18.90;99.90
20546;DHT22;10431;50.228;9.112;2023-10-09T05:08:13;18.90;99.90
20546;DHT22;10431;50.228;9.112;2023-10-09T05:10:55;18.90;99.90
20546;DHT22;10431;50.228;9.112;2023-10-09T05:13:25;18.90;99.90
20546;DHT22;10431;50.228;9.112;2023-10-09T05:16:17;18.90;99.90
20546;DHT22;10431;50.228;9.112;2023-10-09T05:18:54;18.90;99.90
20546;DHT22;10431;50.228;9.112;2023-10-09T05:21:33;18.90;99.90
20546;DHT22;10431;50.228;9.112;2023-10-09T05:24:11;18.80;99.90
20546;DHT22;10431;50.228;9.112;2023-10-09T05:26:45;18.90;99.90
20546;DHT22;10431;50.228;9.112;2023-10-09T05:29:21;18.90;99.90
20546;DHT22;10431;50.228;9.112;2023-10-09T05:32:01;18.90;99.90
20546;DHT22;10431;50.228;9.112;2023-10-09T05:34:43;18.80;99.90
20546;DHT22;10431;50.228;9.112;2023-10-09T05:37:33;18.90;99.90
20546;DHT22;10431;50.228;9.112;2023-10-09T05:42:31;18.80;99.90
20546;DHT22;10431;50.228;9.112;2023-10-09T05:45:04;18.80;99.90
20546;DHT22;10431;50.228;9.112;2023-10-09T05:47:53;18.90;99.90
20546;DHT22;10431;50.228;9.112;2023-10-09T05:50:24;18.90;99.90
20546;DHT22;10431;50.228;9.112;2023-10-09T05:52:51;18.90;99.90
20546;DHT22;10431;50.228;9.112;2023-10-09T05:55:18;18.80;99.90
20546;DHT22;10431;50.228;9.112;2023-10-09T05:57:54;18.80;99.90
20546;DHT22;10431;50.228;9.112;2023-10-09T06:00:39;18.80;99.90
20546;DHT22;10431;50.228;9.112;2023-10-09T06:03:24;18.80;99.90
20546;DHT22;10431;50.228;9.112;2023-10-09T06:05:53;18.80;99.90
20546;DHT22;10431;50.228;9.112;2023-10-09T06:08:20;18.80;99.90
20546;DHT22;10431;50.228;9.112;2023-10-09T06:11:05;18.80;99.90
20546;DHT22;10431;50.228;9.112;2023-10-09T06:13:51;18.80;99.90
20546;DHT22;10431;50.228;9.112;2023-10-09T06:16:29;18.80;99.90
20546;DHT22;10431;50.228;9.112;2023-10-09T06:19:14;18.80;99.90
20546;DHT22;10431;50.228;9.112;2023-10-09T06:21:49;18.80;99.90
20546;DHT22;10431;50.228;9.112;2023-10-09T06:26:46;18.80;99.90
20546;DHT22;10431;50.228;9.112;2023-10-09T06:29:40;18.80;99.90
20546;DHT22;10431;50.228;9.112;2023-10-09T06:32:15;18.70;99.90
20546;DHT22;10431;50.228;9.112;2023-10-09T06:34:45;18.70;99.90
20546;DHT22;10431;50.228;9.112;2023-10-09T06:37:13;18.50;99.90
20546;DHT22;10431;50.228;9.112;2023-10-09T06:39:51;18.50;99.90
20546;DHT22;10431;50.228;9.112;2023-10-09T06:42:24;18.50;99.90
20546;DHT22;10431;50.228;9.112;2023-10-09T06:45:06;18.50;99.90
20546;DHT22;10431;50.228;9.112;2023-10-09T06:47:34;18.60;99.90
20546;DHT22;10431;50.228;9.112;2023-10-09T06:50:16;18.60;99.90
20546;DHT22;10431;50.228;9.112;2023-10-09T06:52:54;18.60;99.90
20546;DHT22;10431;50.228;9.112;2023-10-09T06:55:24;18.60;99.90
20546;DHT22;10431;50.228;9.112;2023-10-09T06:58:09;18.70;99.90
20546;DHT22;10431;50.228;9.112;2023-10-09T07:00:39;18.60;99.90
20546;DHT22;10431;50.228;9.112;2023-10-09T07:03:25;18.60;99.90
20546;DHT22;10431;50.228;9.112;2023-10-09T07:06:09;18.60;99.90
20546;DHT22;10431;50.228;9.112;2023-10-09T07:08:42;18.60;99.90
20546;DHT22;10431;50.228;9.112;2023-10-09T07:11:23;18.60;99.90
20546;DHT22;10431;50.228;9.112;2023-10-09T07:14:13;18.60;99.90
20546;DHT22;10431;50.228;9.112;2023-10-09T07:17:02;18.60;99.90
20546;DHT22;10431;50.228;9.112;2023-10-09T07:19:48;18.60;99.90
20546;DHT22;10431;50.228;9.112;2023-10-09T07:22:15;18.60;99.90
20546;DHT22;10431;50.228;9.112;2023-10-09T07:24:54;18.60;99.90
20546;DHT22;10431;50.228;9.112;2023-10-09T07:27:24;18.60;99.90
20546;DHT22;10431;50.228;9.112;2023-10-09T07:30:10;18.60;99.90
20546;DHT22;10431;50.228;9.112;2023-10-09T07:33:02;18.60;99.90
20546;DHT22;10431;50.228;9.112;2023-10-09T07:35:34;18.60;99.90
20546;DHT22;10431;50.228;9.112;2023-10-09T07:40:51;18.60;99.90
20546;DHT22;10431;50.228;9.112;2023-10-09T07:43:34;18.60;99.90
20546;DHT22;10431;50.228;9.112;2023-10-09T07:46:15;18.60;99.90
20546;DHT22;10431;50.228;9.112;2023-10-09T07:49:03;18.60;99.90
20546;DHT22;10431;50.228;9.112;2023-10-09T07:51:36;18.60;99.90
20546;DHT22;10431;50.228;9.112;2023-10-09T07:54:03;18.60;99.90
20546;DHT22;10431;50.228;9.112;2023-10-09T07:56:41;18.60;99.90
20546;DHT22;10431;50.228;9.112;2023-10-09T07:59:12;18.60;99.90
20546;DHT22;10431;50.228;9.112;2023-10-09T08:01:43;18.60;99.90
20546;DHT22;10431;50.228;9.112;2023-10-09T08:04:20;18.60;99.90
20546;DHT22;10431;50.228;9.112;2023-10-09T08:07:04;18.60;99.90
20546;DHT22;10431;50.228;9.112;2023-10-09T08:09:34;18.60;99.90
20546;DHT22;10431;50.228;9.112;2023-10-09T08:12:16;18.60;99.90
20546;DHT22;10431;50.228;9.112;2023-10-09T08:15:02;18.60;99.90
20546;DHT22;10431;50.228;9.112;2023-10-09T08:17:56;18.60;99.90
20546;DHT22;10431;50.228;9.112;2023-10-09T08:20:30;18.60;99.90
20546;DHT22;10431;50.228;9.112;2023-10-09T08:23:17;18.60;99.90
20546;DHT22;10431;50.228;9.112;2023-10-09T08:26:02;18.60;99.90
20546;DHT22;10431;50.228;9.112;2023-10-09T08:28:41;18.70;99.90
20546;DHT22;10431;50.228;9.112;2023-10-09T08:31:15;18.60;99.90
20546;DHT22;10431;50.228;9.112;2023-10-09T08:33:48;18.60;99.90
20546;DHT22;10431;50.228;9.112;2023-10-09T08:36:28;18.60;99.90
20546;DHT22;10431;50.228;9.112;2023-10-09T08:39:05;18.60;99.90
20546;DHT22;10431;50.228;9.112;2023-10-09T08:41:52;18.60;99.90
20546;DHT22;10431;50.228;9.112;2023-10-09T08:44:20;18.60;99.90
20546;DHT22;10431;50.228;9.112;2023-10-09T08:46:50;18.60;99.90
20546;DHT22;10431;50.228;9.112;2023-10-09T08:49:17;18.60;99.90
20546;DHT22;10431;50.228;9.112;2023-10-09T08:51:45;18.60;99.90
20546;DHT22;10431;50.228;9.112;2023-10-09T08:54:12;18.60;99.90
20546;DHT22;10431;50.228;9.112;2023-10-09T08:56:41;18.60;99.90
20546;DHT22;10431;50.228;9.112;2023-10-09T08:59:18;18.60;99.90
20546;DHT22;10431;50.228;9.112;2023-10-09T09:01:49;18.60;99.90
20546;DHT22;10431;50.228;9.112;2023-10-09T09:04:34;18.60;99.90
20546;DHT22;10431;50.228;9.112;2023-10-09T09:07:02;18.60;99.90
20546;DHT22;10431;50.228;9.112;2023-10-09T09:09:29;18.60;99.90
20546;DHT22;10431;50.228;9.112;2023-10-09T09:11:58;18.60;99.90
20546;DHT22;10431;50.228;9.112;2023-10-09T09:14:37;18.60;99.90
20546;DHT22;10431;50.228;9.112;2023-10-09T09:17:04;18.60;99.90
20546;DHT22;10431;50.228;9.112;2023-10-09T09:19:32;18.60;99.90
20546;DHT22;10431;50.228;9.112;2023-10-09T09:21:59;18.60;99.90
20546;DHT22;10431;50.228;9.112;2023-10-09T09:24:37;18.60;99.90
20546;DHT22;10431;50.228;9.112;2023-10-09T09:27:05;18.60;99.90
20546;DHT22;10431;50.228;9.112;2023-10-09T09:29:47;18.60;99.90
20546;DHT22;10431;50.228;9.112;2023-10-09T09:32:28;18.60;99.90
20546;DHT22;10431;50.228;9.112;2023-10-09T09:35:08;18.60;99.90
20546;DHT22;10431;50.228;9.112;2023-10-09T09:37:52;18.60;99.90
20546;DHT22;10431;50.228;9.112;2023-10-09T09:40:19;18.60;99.90
20546;DHT22;10431;50.228;9.112;2023-10-09T09:43:07;18.60;99.90
20546;DHT22;10431;50.228;9.112;2023-10-09T09:45:48;18.60;99.90
20546;DHT22;10431;50.228;9.112;2023-10-09T09:48:17;18.60;99.90
20546;DHT22;10431;50.228;9.112;2023-10-09T09:50:43;18.60;99.90
20546;DHT22;10431;50.228;9.112;2023-10-09T09:53:14;18.60;99.90
20546;DHT22;10431;50.228;9.112;2023-10-09T09:55:53;18.60;99.90
20546;DHT22;10431;50.228;9.112;2023-10-09T09:58:24;18.60;99.90
20546;DHT22;10431;50.228;9.112;2023-10-09T10:00:57;18.60;99.90
20546;DHT22;10431;50.228;9.112;2023-10-09T10:03:37;18.60;99.90
20546;DHT22;10431;50.228;9.112;2023-10-09T10:06:06;18.60;99.90
20546;DHT22;10431;50.228;9.112;2023-10-09T10:08:38;18.60;99.90
20546;DHT22;10431;50.228;9.112;2023-10-09T10:11:07;18.60;99.90
20546;DHT22;10431;50.228;9.112;2023-10-09T10:16:10;18.60;99.90
20546;DHT22;10431;50.228;9.112;2023-10-09T10:21:42;18.60;99.90
20546;DHT22;10431;50.228;9.112;2023-10-09T10:29:36;18.60;99.90
20546;DHT22;10431;50.228;9.112;2023-10-09T10:32:04;18.60;99.90
20546;DHT22;10431;50.228;9.112;2023-10-09T10:37:15;18.50;99.90
20546;DHT22;10431;50.228;9.112;2023-10-09T10:40:00;18.50;99.90
20546;DHT22;10431;50.228;9.112;2023-10-09T10:42:27;18.60;99.90
20546;DHT22;10431;50.228;9.112;2023-10-09T10:45:03;18.50;99.90
20546;DHT22;10431;50.228;9.112;2023-10-09T10:47:49;18.60;99.90
20546;DHT22;10431;50.228;9.112;2023-10-09T10:50:17;18.60;99.90
20546;DHT22;10431;50.228;9.112;2023-10-09T10:53:29;18.60;99.90
20546;DHT22;10431;50.228;9.112;2023-10-09T10:56:02;18.60;99.90
20546;DHT22;10431;50.228;9.112;2023-10-09T10:58:55;18.60;99.90
20546;DHT22;10431;50.228;9.112;2023-10-09T11:01:30;18.50;99.90
20546;DHT22;10431;50.228;9.112;2023-10-09T11:04:17;18.60;99.90
20546;DHT22;10431;50.228;9.112;2023-10-09T11:07:00;18.60;99.90
20546;DHT22;10431;50.228;9.112;2023-10-09T11:09:53;18.60;99.90
20546;DHT22;10431;50.228;9.112;2023-10-09T11:15:05;18.60;99.90
20546;DHT22;10431;50.228;9.112;2023-10-09T11:17:33;18.60;99.90
20546;DHT22;10431;50.228;9.112;2023-10-09T11:20:06;18.60;99.90
20546;DHT22;10431;50.228;9.112;2023-10-09T11:22:52;18.60;99.90
20546;DHT22;10431;50.228;9.112;2023-10-09T11:25:39;18.60;99.90
20546;DHT22;10431;50.228;9.112;2023-10-09T11:28:19;18.60;99.90
20546;DHT22;10431;50.228;9.112;2023-10-09T11:31:09;18.60;99.90
20546;DHT22;10431;50.228;9.112;2023-10-09T11:36:09;18.60;99.90
20546;DHT22;10431;50.228;9.112;2023-10-09T11:38:38;18.60;99.90
20546;DHT22;10431;50.228;9.112;2023-10-09T11:41:17;18.60;99.90
20546;DHT22;10431;50.228;9.112;2023-10-09T11:43:47;18.60;99.90
20546;DHT22;10431;50.228;9.112;2023-10-09T11:46:21;18.60;99.90
20546;DHT22;10431;50.228;9.112;2023-10-09T11:49:07;18.60;99.90
20546;DHT22;10431;50.228;9.112;2023-10-09T11:51:52;18.60;99.90
20546;DHT22;10431;50.228;9.112;2023-10-09T11:54:38;18.60;99.90
20546;DHT22;10431;50.228;9.112;2023-10-09T11:57:04;18.60;99.90
20546;DHT22;10431;50.228;9.112;2023-10-09T11:59:31;18.60;99.90
20546;DHT22;10431;50.228;9.112;2023-10-09T12:02:05;18.60;99.90
20546;DHT22;10431;50.228;9.112;2023-10-09T12:04:31;18.60;99.90
20546;DHT22;10431;50.228;9.112;2023-10-09T12:06:57;18.60;99.90
20546;DHT22;10431;50.228;9.112;2023-10-09T12:09:33;18.60;99.90
20546;DHT22;10431;50.228;9.112;2023-10-09T12:12:04;18.60;99.90
20546;DHT22;10431;50.228;9.112;2023-10-09T12:14:31;18.60;99.90
20546;DHT22;10431;50.228;9.112;2023-10-09T12:17:01;18.60;99.90
20546;DHT22;10431;50.228;9.112;2023-10-09T12:19:36;18.60;99.90
20546;DHT22;10431;50.228;9.112;2023-10-09T12:22:04;18.60;99.90
20546;DHT22;10431;50.228;9.112;2023-10-09T12:24:31;18.60;99.90
20546;DHT22;10431;50.228;9.112;2023-10-09T12:26:59;18.60;99.90
20546;DHT22;10431;50.228;9.112;2023-10-09T12:29:26;18.50;99.90
20546;DHT22;10431;50.228;9.112;2023-10-09T12:31:56;18.50;99.90
20546;DHT22;10431;50.228;9.112;2023-10-09T12:34:27;18.50;99.90
20546;DHT22;10431;50.228;9.112;2023-10-09T12:36:54;18.60;99.90
20546;DHT22;10431;50.228;9.112;2023-10-09T12:39:21;18.60;99.90
20546;DHT22;10431;50.228;9.112;2023-10-09T12:41:48;18.60;99.90
20546;DHT22;10431;50.228;9.112;2023-10-09T12:44:14;18.60;99.90
20546;DHT22;10431;50.228;9.112;2023-10-09T12:46:41;18.50;99.90
20546;DHT22;10431;50.228;9.112;2023-10-09T12:49:08;18.60;99.90
20546;DHT22;10431;50.228;9.112;2023-10-09T12:51:34;18.60;99.90
20546;DHT22;10431;50.228;9.112;2023-10-09T12:54:00;18.60;99.90
20546;DHT22;10431;50.228;9.112;2023-10-09T12:56:30;18.60;99.90
20546;DHT22;10431;50.228;9.112;2023-10-09T12:59:04;18.50;99.90
20546;DHT22;10431;50.228;9.112;2023-10-09T13:01:33;18.50;99.90
20546;DHT22;10431;50.228;9.112;2023-10-09T13:04:13;18.50;99.90
20546;DHT22;10431;50.228;9.112;2023-10-09T13:06:42;18.60;99.90
20546;DHT22;10431;50.228;9.112;2023-10-09T13:09:15;18.60;99.90
20546;DHT22;10431;50.228;9.112;2023-10-09T13:11:44;18.50;99.90
20546;DHT22;10431;50.228;9.112;2023-10-09T13:14:14;18.50;99.90
20546;DHT22;10431;50.228;9.112;2023-10-09T13:16:43;18.60;99.90
20546;DHT22;10431;50.228;9.112;2023-10-09T13:19:10;18.50;99.90
20546;DHT22;10431;50.228;9.112;2023-10-09T13:21:37;18.50;99.90
20546;DHT22;10431;50.228;9.112;2023-10-09T13:24:05;18.50;99.90
20546;DHT22;10431;50.228;9.112;2023-10-09T13:26:31;18.50;99.90
20546;DHT22;10431;50.228;9.112;2023-10-09T13:28:59;18.60;99.90
20546;DHT22;10431;50.228;9.112;2023-10-09T13:31:27;18.60;99.90
20546;DHT22;10431;50.228;9.112;2023-10-09T13:33:55;18.60;99.90
20546;DHT22;10431;50.228;9.112;2023-10-09T13:36:25;18.50;99.90
20546;DHT22;10431;50.228;9.112;2023-10-09T13:38:58;18.50;99.90
20546;DHT22;10431;50.228;9.112;2023-10-09T13:41:43;18.50;99.90
20546;DHT22;10431;50.228;9.112;2023-10-09T13:44:10;18.50;99.90
20546;DHT22;10431;50.228;9.112;2023-10-09T13:46:36;18.50;99.90
20546;DHT22;10431;50.228;9.112;2023-10-09T13:49:09;18.50;99.90
20546;DHT22;10431;50.228;9.112;2023-10-09T13:51:40;18.50;99.90
20546;DHT22;10431;50.228;9.112;2023-10-09T13:54:11;18.50;99.90
20546;DHT22;10431;50.228;9.112;2023-10-09T13:56:46;18.50;99.90
20546;DHT22;10431;50.228;9.112;2023-10-09T13:59:12;18.50;99.90
20546;DHT22;10431;50.228;9.112;2023-10-09T14:01:38;18.50;99.90
20546;DHT22;10431;50.228;9.112;2023-10-09T14:04:05;18.50;99.90
20546;DHT22;10431;50.228;9.112;2023-10-09T14:06:33;18.50;99.90
20546;DHT22;10431;50.228;9.112;2023-10-09T14:09:02;18.50;99.90
20546;DHT22;10431;50.228;9.112;2023-10-09T14:11:31;18.50;99.90
20546;DHT22;10431;50.228;9.112;2023-10-09T14:13:58;18.50;99.90
20546;DHT22;10431;50.228;9.112;2023-10-09T14:16:27;18.50;99.90
20546;DHT22;10431;50.228;9.112;2023-10-09T14:18:55;18.50;99.90
20546;DHT22;10431;50.228;9.112;2023-10-09T14:21:25;18.50;99.90
20546;DHT22;10431;50.228;9.112;2023-10-09T14:23:52;18.50;99.90
20546;DHT22;10431;50.228;9.112;2023-10-09T14:26:28;18.50;99.90
20546;DHT22;10431;50.228;9.112;2023-10-09T14:28:56;18.50;99.90
20546;DHT22;10431;50.228;9.112;2023-10-09T14:31:25;18.50;99.90
20546;DHT22;10431;50.228;9.112;2023-10-09T14:33:56;18.50;99.90
20546;DHT22;10431;50.228;9.112;2023-10-09T14:36:23;18.50;99.90
20546;DHT22;10431;50.228;9.112;2023-10-09T14:38:50;18.50;99.90
20546;DHT22;10431;50.228;9.112;2023-10-09T14:41:19;18.50;99.90
20546;DHT22;10431;50.228;9.112;2023-10-09T14:43:50;18.50;99.90
20546;DHT22;10431;50.228;9.112;2023-10-09T14:46:17;18.50;99.90
20546;DHT22;10431;50.228;9.112;2023-10-09T14:48:49;18.50;99.90
20546;DHT22;10431;50.228;9.112;2023-10-09T14:51:15;18.50;99.90
20546;DHT22;10431;50.228;9.112;2023-10-09T14:53:41;18.50;99.90
20546;DHT22;10431;50.228;9.112;2023-10-09T14:56:08;18.50;99.90
20546;DHT22;10431;50.228;9.112;2023-10-09T14:58:35;18.50;99.90
20546;DHT22;10431;50.228;9.112;2023-10-09T15:01:11;18.50;99.90
20546;DHT22;10431;50.228;9.112;2023-10-09T15:03:38;18.50;99.90
20546;DHT22;10431;50.228;9.112;2023-10-09T15:06:05;18.50;99.90
20546;DHT22;10431;50.228;9.112;2023-10-09T15:08:35;18.50;99.90
20546;DHT22;10431;50.228;9.112;2023-10-09T15:11:01;18.50;99.90
20546;DHT22;10431;50.228;9.112;2023-10-09T15:13:27;18.50;99.90
20546;DHT22;10431;50.228;9.112;2023-10-09T15:15:55;18.40;99.90
20546;DHT22;10431;50.228;9.112;2023-10-09T15:18:22;18.50;99.90
20546;DHT22;10431;50.228;9.112;2023-10-09T15:20:49;18.40;99.90
20546;DHT22;10431;50.228;9.112;2023-10-09T15:23:15;18.50;99.90
20546;DHT22;10431;50.228;9.112;2023-10-09T15:25:41;18.40;99.90
20546;DHT22;10431;50.228;9.112;2023-10-09T15:28:11;18.50;99.90
20546;DHT22;10431;50.228;9.112;2023-10-09T15:30:38;18.40;99.90
20546;DHT22;10431;50.228;9.112;2023-10-09T15:33:05;18.50;99.90
20546;DHT22;10431;50.228;9.112;2023-10-09T15:35:31;18.40;99.90
20546;DHT22;10431;50.228;9.112;2023-10-09T15:38:04;18.40;99.90
20546;DHT22;10431;50.228;9.112;2023-10-09T15:40:30;18.40;99.90
20546;DHT22;10431;50.228;9.112;2023-10-09T15:43:00;18.50;99.90
20546;DHT22;10431;50.228;9.112;2023-10-09T15:45:27;18.50;99.90
20546;DHT22;10431;50.228;9.112;2023-10-09T15:47:55;18.50;99.90
20546;DHT22;10431;50.228;9.112;2023-10-09T15:50:22;18.40;99.90
20546;DHT22;10431;50.228;9.112;2023-10-09T15:52:52;18.50;99.90
20546;DHT22;10431;50.228;9.112;2023-10-09T15:55:22;18.50;99.90
20546;DHT22;10431;50.228;9.112;2023-10-09T15:57:52;18.50;99.90
20546;DHT22;10431;50.228;9.112;2023-10-09T16:00:18;18.50;99.90
20546;DHT22;10431;50.228;9.112;2023-10-09T16:02:49;18.40;99.90
20546;DHT22;10431;50.228;9.112;2023-10-09T16:05:19;18.40;99.90
20546;DHT22;10431;50.228;9.112;2023-10-09T16:07:49;18.50;99.90
20546;DHT22;10431;50.228;9.112;2023-10-09T16:10:16;18.40;99.90
20546;DHT22;10431;50.228;9.112;2023-10-09T16:12:43;18.40;99.90
20546;DHT22;10431;50.228;9.112;2023-10-09T16:15:10;18.50;99.90
20546;DHT22;10431;50.228;9.112;2023-10-09T16:17:36;18.40;99.90
20546;DHT22;10431;50.228;9.112;2023-10-09T16:20:06;18.40;99.90
20546;DHT22;10431;50.228;9.112;2023-10-09T16:22:40;18.40;99.90
20546;DHT22;10431;50.228;9.112;2023-10-09T16:25:06;18.40;99.90
20546;DHT22;10431;50.228;9.112;2023-10-09T16:27:35;18.40;99.90
20546;DHT22;10431;50.228;9.112;2023-10-09T16:30:02;18.40;99.90
20546;DHT22;10431;50.228;9.112;2023-10-09T16:32:32;18.40;99.90
20546;DHT22;10431;50.228;9.112;2023-10-09T16:34:58;18.40;99.90